sensor_id;sensor_type;location;lat;lon;timestamp;P1;durP1;ratioP1;P2;durP2;ratioP2
52268;SDS011;38224;50.950;4.100;2023-02-15T00:01:10;213.57;;;98.85;;
52268;SDS011;38224;50.950;4.100;2023-02-15T00:03:36;224.27;;;99.70;;
52268;SDS011;38224;50.950;4.100;2023-02-15T00:06:01;224.25;;;102.40;;
52268;SDS011;38224;50.950;4.100;2023-02-15T00:08:27;231.18;;;103.80;;
52268;SDS011;38224;50.950;4.100;2023-02-15T00:10:52;224.52;;;97.72;;
52268;SDS011;38224;50.950;4.100;2023-02-15T00:13:18;175.40;;;84.30;;
52268;SDS011;38224;50.950;4.100;2023-02-15T00:15:43;185.83;;;82.57;;
52268;SDS011;38224;50.950;4.100;2023-02-15T00:18:08;169.95;;;79.88;;
52268;SDS011;38224;50.950;4.100;2023-02-15T00:20:34;182.00;;;84.22;;
52268;SDS011;38224;50.950;4.100;2023-02-15T00:22:59;166.32;;;77.15;;
52268;SDS011;38224;50.950;4.100;2023-02-15T00:25:24;162.15;;;76.38;;
52268;SDS011;38224;50.950;4.100;2023-02-15T00:27:50;145.00;;;72.13;;
52268;SDS011;38224;50.950;4.100;2023-02-15T00:30:15;148.10;;;74.70;;
52268;SDS011;38224;50.950;4.100;2023-02-15T00:32:40;142.20;;;69.88;;
52268;SDS011;38224;50.950;4.100;2023-02-15T00:35:06;137.63;;;66.83;;
52268;SDS011;38224;50.950;4.100;2023-02-15T00:37:31;130.75;;;67.40;;
52268;SDS011;38224;50.950;4.100;2023-02-15T00:39:57;138.70;;;65.65;;
52268;SDS011;38224;50.950;4.100;2023-02-15T00:42:22;129.18;;;63.67;;
52268;SDS011;38224;50.950;4.100;2023-02-15T00:44:47;128.93;;;64.47;;
52268;SDS011;38224;50.950;4.100;2023-02-15T00:47:13;122.60;;;61.47;;
52268;SDS011;38224;50.950;4.100;2023-02-15T00:49:38;130.63;;;62.57;;
52268;SDS011;38224;50.950;4.100;2023-02-15T00:52:03;120.35;;;61.35;;
52268;SDS011;38224;50.950;4.100;2023-02-15T00:54:28;121.28;;;61.75;;
52268;SDS011;38224;50.950;4.100;2023-02-15T00:56:53;121.67;;;59.63;;
52268;SDS011;38224;50.950;4.100;2023-02-15T00:59:19;127.60;;;64.00;;
52268;SDS011;38224;50.950;4.100;2023-02-15T01:01:44;119.53;;;59.63;;
52268;SDS011;38224;50.950;4.100;2023-02-15T01:04:09;122.93;;;60.33;;
52268;SDS011;38224;50.950;4.100;2023-02-15T01:06:34;127.57;;;63.57;;
52268;SDS011;38224;50.950;4.100;2023-02-15T01:09:00;124.63;;;59.72;;
52268;SDS011;38224;50.950;4.100;2023-02-15T01:11:25;124.07;;;61.95;;
52268;SDS011;38224;50.950;4.100;2023-02-15T01:13:51;124.70;;;62.33;;
52268;SDS011;38224;50.950;4.100;2023-02-15T01:16:17;121.45;;;63.05;;
52268;SDS011;38224;50.950;4.100;2023-02-15T01:18:42;110.65;;;59.38;;
52268;SDS011;38224;50.950;4.100;2023-02-15T01:21:15;107.28;;;55.88;;
52268;SDS011;38224;50.950;4.100;2023-02-15T01:23:41;110.75;;;56.90;;
52268;SDS011;38224;50.950;4.100;2023-02-15T01:26:07;103.80;;;55.47;;
52268;SDS011;38224;50.950;4.100;2023-02-15T01:28:33;103.20;;;53.95;;
52268;SDS011;38224;50.950;4.100;2023-02-15T01:30:58;109.40;;;55.42;;
52268;SDS011;38224;50.950;4.100;2023-02-15T01:33:24;110.20;;;56.67;;
52268;SDS011;38224;50.950;4.100;2023-02-15T01:35:52;113.82;;;58.15;;
52268;SDS011;38224;50.950;4.100;2023-02-15T01:38:20;125.40;;;60.13;;
52268;SDS011;38224;50.950;4.100;2023-02-15T01:40:45;120.00;;;61.47;;
52268;SDS011;38224;50.950;4.100;2023-02-15T01:43:11;130.33;;;63.67;;
52268;SDS011;38224;50.950;4.100;2023-02-15T01:45:37;130.50;;;65.18;;
52268;SDS011;38224;50.950;4.100;2023-02-15T01:48:19;122.75;;;62.60;;
52268;SDS011;38224;50.950;4.100;2023-02-15T01:50:58;119.82;;;63.33;;
52268;SDS011;38224;50.950;4.100;2023-02-15T01:58:16;136.27;;;66.17;;
52268;SDS011;38224;50.950;4.100;2023-02-15T02:00:41;126.85;;;64.70;;
52268;SDS011;38224;50.950;4.100;2023-02-15T02:03:07;153.43;;;72.45;;
52268;SDS011;38224;50.950;4.100;2023-02-15T02:05:32;165.10;;;77.10;;
52268;SDS011;38224;50.950;4.100;2023-02-15T02:07:58;139.32;;;68.75;;
52268;SDS011;38224;50.950;4.100;2023-02-15T02:10:24;119.30;;;64.30;;
52268;SDS011;38224;50.950;4.100;2023-02-15T02:12:53;125.97;;;64.55;;
52268;SDS011;38224;50.950;4.100;2023-02-15T02:15:21;123.38;;;64.72;;
52268;SDS011;38224;50.950;4.100;2023-02-15T02:17:56;142.48;;;69.97;;
52268;SDS011;38224;50.950;4.100;2023-02-15T02:20:28;136.73;;;68.18;;
52268;SDS011;38224;50.950;4.100;2023-02-15T02:28:03;119.80;;;60.00;;
52268;SDS011;38224;50.950;4.100;2023-02-15T02:35:48;109.18;;;58.42;;
52268;SDS011;38224;50.950;4.100;2023-02-15T02:43:35;113.18;;;56.55;;
52268;SDS011;38224;50.950;4.100;2023-02-15T02:46:39;119.25;;;61.72;;
52268;SDS011;38224;50.950;4.100;2023-02-15T02:48:55;126.93;;;60.53;;
52268;SDS011;38224;50.950;4.100;2023-02-15T02:51:21;119.82;;;61.05;;
52268;SDS011;38224;50.950;4.100;2023-02-15T02:53:50;112.85;;;58.58;;
52268;SDS011;38224;50.950;4.100;2023-02-15T02:56:24;121.55;;;59.88;;
52268;SDS011;38224;50.950;4.100;2023-02-15T02:59:02;119.22;;;62.25;;
52268;SDS011;38224;50.950;4.100;2023-02-15T03:03:56;131.80;;;64.93;;
52268;SDS011;38224;50.950;4.100;2023-02-15T03:06:27;147.23;;;66.82;;
52268;SDS011;38224;50.950;4.100;2023-02-15T03:08:55;147.70;;;66.97;;
52268;SDS011;38224;50.950;4.100;2023-02-15T03:11:22;136.95;;;66.00;;
52268;SDS011;38224;50.950;4.100;2023-02-15T03:13:47;133.32;;;63.30;;
52268;SDS011;38224;50.950;4.100;2023-02-15T03:16:13;132.68;;;59.60;;
52268;SDS011;38224;50.950;4.100;2023-02-15T03:18:52;138.13;;;64.72;;
52268;SDS011;38224;50.950;4.100;2023-02-15T03:21:23;139.02;;;63.42;;
52268;SDS011;38224;50.950;4.100;2023-02-15T03:23:57;128.98;;;62.75;;
52268;SDS011;38224;50.950;4.100;2023-02-15T03:26:24;140.10;;;65.43;;
52268;SDS011;38224;50.950;4.100;2023-02-15T03:28:50;139.32;;;67.28;;
52268;SDS011;38224;50.950;4.100;2023-02-15T03:31:17;142.45;;;69.40;;
52268;SDS011;38224;50.950;4.100;2023-02-15T03:33:47;142.80;;;66.57;;
52268;SDS011;38224;50.950;4.100;2023-02-15T03:36:17;149.45;;;71.32;;
52268;SDS011;38224;50.950;4.100;2023-02-15T03:38:50;164.52;;;78.05;;
52268;SDS011;38224;50.950;4.100;2023-02-15T03:41:16;169.50;;;80.07;;
52268;SDS011;38224;50.950;4.100;2023-02-15T03:43:51;168.27;;;80.03;;
52268;SDS011;38224;50.950;4.100;2023-02-15T03:48:49;179.45;;;79.40;;
52268;SDS011;38224;50.950;4.100;2023-02-15T03:51:20;176.63;;;83.87;;
52268;SDS011;38224;50.950;4.100;2023-02-15T03:53:58;180.38;;;80.40;;
52268;SDS011;38224;50.950;4.100;2023-02-15T03:56:24;180.63;;;83.45;;
52268;SDS011;38224;50.950;4.100;2023-02-15T03:58:49;187.63;;;83.13;;
52268;SDS011;38224;50.950;4.100;2023-02-15T04:01:34;168.23;;;79.63;;
52268;SDS011;38224;50.950;4.100;2023-02-15T04:04:20;157.90;;;75.88;;
52268;SDS011;38224;50.950;4.100;2023-02-15T04:06:47;152.40;;;71.28;;
52268;SDS011;38224;50.950;4.100;2023-02-15T04:09:13;145.15;;;64.88;;
52268;SDS011;38224;50.950;4.100;2023-02-15T04:11:57;123.60;;;60.47;;
52268;SDS011;38224;50.950;4.100;2023-02-15T04:14:22;124.88;;;57.38;;
52268;SDS011;38224;50.950;4.100;2023-02-15T04:17:06;119.18;;;57.03;;
52268;SDS011;38224;50.950;4.100;2023-02-15T04:19:35;116.40;;;55.97;;
52268;SDS011;38224;50.950;4.100;2023-02-15T04:22:19;109.80;;;55.08;;
52268;SDS011;38224;50.950;4.100;2023-02-15T04:25:03;115.93;;;54.22;;
52268;SDS011;38224;50.950;4.100;2023-02-15T04:27:34;96.32;;;49.15;;
52268;SDS011;38224;50.950;4.100;2023-02-15T04:29:59;102.27;;;52.67;;
52268;SDS011;38224;50.950;4.100;2023-02-15T04:32:24;112.90;;;55.53;;
52268;SDS011;38224;50.950;4.100;2023-02-15T04:34:50;129.10;;;59.80;;
52268;SDS011;38224;50.950;4.100;2023-02-15T04:37:15;121.40;;;58.15;;
52268;SDS011;38224;50.950;4.100;2023-02-15T04:39:40;125.85;;;56.83;;
52268;SDS011;38224;50.950;4.100;2023-02-15T04:42:06;121.67;;;56.20;;
52268;SDS011;38224;50.950;4.100;2023-02-15T04:44:31;111.67;;;55.87;;
52268;SDS011;38224;50.950;4.100;2023-02-15T04:46:56;121.47;;;53.73;;
52268;SDS011;38224;50.950;4.100;2023-02-15T04:49:21;111.85;;;56.55;;
52268;SDS011;38224;50.950;4.100;2023-02-15T04:51:46;113.50;;;56.53;;
52268;SDS011;38224;50.950;4.100;2023-02-15T04:54:12;105.70;;;53.10;;
52268;SDS011;38224;50.950;4.100;2023-02-15T04:56:37;107.28;;;52.05;;
52268;SDS011;38224;50.950;4.100;2023-02-15T04:59:03;110.35;;;54.00;;
52268;SDS011;38224;50.950;4.100;2023-02-15T05:01:29;113.43;;;51.47;;
52268;SDS011;38224;50.950;4.100;2023-02-15T05:03:54;115.85;;;54.38;;
52268;SDS011;38224;50.950;4.100;2023-02-15T05:06:19;126.25;;;58.63;;
52268;SDS011;38224;50.950;4.100;2023-02-15T05:08:45;141.82;;;62.50;;
52268;SDS011;38224;50.950;4.100;2023-02-15T05:11:10;148.82;;;68.47;;
52268;SDS011;38224;50.950;4.100;2023-02-15T05:13:35;135.43;;;66.17;;
52268;SDS011;38224;50.950;4.100;2023-02-15T05:16:00;152.10;;;68.67;;
52268;SDS011;38224;50.950;4.100;2023-02-15T05:18:26;147.70;;;67.97;;
52268;SDS011;38224;50.950;4.100;2023-02-15T05:20:51;153.07;;;71.20;;
52268;SDS011;38224;50.950;4.100;2023-02-15T05:23:16;146.00;;;67.95;;
52268;SDS011;38224;50.950;4.100;2023-02-15T05:25:46;144.20;;;65.22;;
52268;SDS011;38224;50.950;4.100;2023-02-15T05:28:29;138.05;;;61.88;;
52268;SDS011;38224;50.950;4.100;2023-02-15T05:31:11;140.57;;;63.17;;
52268;SDS011;38224;50.950;4.100;2023-02-15T05:33:37;125.45;;;59.25;;
52268;SDS011;38224;50.950;4.100;2023-02-15T05:36:02;124.63;;;58.70;;
52268;SDS011;38224;50.950;4.100;2023-02-15T05:38:28;122.25;;;58.70;;
52268;SDS011;38224;50.950;4.100;2023-02-15T05:40:53;133.35;;;58.50;;
52268;SDS011;38224;50.950;4.100;2023-02-15T05:43:19;132.80;;;58.30;;
52268;SDS011;38224;50.950;4.100;2023-02-15T05:45:45;116.95;;;55.83;;
52268;SDS011;38224;50.950;4.100;2023-02-15T05:48:10;116.88;;;55.72;;
52268;SDS011;38224;50.950;4.100;2023-02-15T05:50:35;108.55;;;52.80;;
52268;SDS011;38224;50.950;4.100;2023-02-15T05:53:01;120.87;;;57.13;;
52268;SDS011;38224;50.950;4.100;2023-02-15T05:55:26;117.07;;;56.90;;
52268;SDS011;38224;50.950;4.100;2023-02-15T05:57:51;117.35;;;56.75;;
52268;SDS011;38224;50.950;4.100;2023-02-15T06:00:17;127.57;;;58.95;;
52268;SDS011;38224;50.950;4.100;2023-02-15T06:02:42;126.03;;;57.70;;
52268;SDS011;38224;50.950;4.100;2023-02-15T06:05:08;125.05;;;59.90;;
52268;SDS011;38224;50.950;4.100;2023-02-15T06:07:33;130.00;;;58.63;;
52268;SDS011;38224;50.950;4.100;2023-02-15T06:09:58;124.40;;;58.63;;
52268;SDS011;38224;50.950;4.100;2023-02-15T06:12:23;146.88;;;64.22;;
52268;SDS011;38224;50.950;4.100;2023-02-15T06:14:49;135.27;;;62.10;;
52268;SDS011;38224;50.950;4.100;2023-02-15T06:17:14;132.43;;;62.55;;
52268;SDS011;38224;50.950;4.100;2023-02-15T06:19:39;134.55;;;61.88;;
52268;SDS011;38224;50.950;4.100;2023-02-15T06:22:04;125.60;;;59.63;;
52268;SDS011;38224;50.950;4.100;2023-02-15T06:24:31;131.95;;;61.60;;
52268;SDS011;38224;50.950;4.100;2023-02-15T06:26:56;126.43;;;61.17;;
52268;SDS011;38224;50.950;4.100;2023-02-15T06:29:21;115.38;;;56.25;;
52268;SDS011;38224;50.950;4.100;2023-02-15T06:31:47;127.37;;;56.17;;
52268;SDS011;38224;50.950;4.100;2023-02-15T06:34:12;112.13;;;52.33;;
52268;SDS011;38224;50.950;4.100;2023-02-15T06:36:37;109.30;;;51.37;;
52268;SDS011;38224;50.950;4.100;2023-02-15T06:39:03;117.30;;;52.08;;
52268;SDS011;38224;50.950;4.100;2023-02-15T06:41:29;99.97;;;51.30;;
52268;SDS011;38224;50.950;4.100;2023-02-15T06:43:54;112.25;;;52.65;;
52268;SDS011;38224;50.950;4.100;2023-02-15T06:46:19;107.33;;;50.93;;
52268;SDS011;38224;50.950;4.100;2023-02-15T06:48:44;108.43;;;51.85;;
52268;SDS011;38224;50.950;4.100;2023-02-15T06:51:10;109.32;;;50.40;;
52268;SDS011;38224;50.950;4.100;2023-02-15T06:53:35;104.30;;;49.30;;
52268;SDS011;38224;50.950;4.100;2023-02-15T06:56:04;99.18;;;50.88;;
52268;SDS011;38224;50.950;4.100;2023-02-15T06:58:38;104.68;;;51.05;;
52268;SDS011;38224;50.950;4.100;2023-02-15T07:01:03;103.32;;;50.38;;
52268;SDS011;38224;50.950;4.100;2023-02-15T07:03:29;98.20;;;47.55;;
52268;SDS011;38224;50.950;4.100;2023-02-15T07:05:58;101.68;;;46.47;;
52268;SDS011;38224;50.950;4.100;2023-02-15T07:08:24;102.35;;;48.25;;
52268;SDS011;38224;50.950;4.100;2023-02-15T07:10:50;94.63;;;48.65;;
52268;SDS011;38224;50.950;4.100;2023-02-15T07:13:15;89.13;;;45.13;;
52268;SDS011;38224;50.950;4.100;2023-02-15T07:15:41;98.43;;;46.33;;
52268;SDS011;38224;50.950;4.100;2023-02-15T07:18:06;99.70;;;46.13;;
52268;SDS011;38224;50.950;4.100;2023-02-15T07:20:31;97.75;;;47.63;;
52268;SDS011;38224;50.950;4.100;2023-02-15T07:22:58;95.40;;;46.45;;
52268;SDS011;38224;50.950;4.100;2023-02-15T07:25:23;102.07;;;46.37;;
52268;SDS011;38224;50.950;4.100;2023-02-15T07:27:50;91.25;;;46.22;;
52268;SDS011;38224;50.950;4.100;2023-02-15T07:30:19;91.25;;;45.45;;
52268;SDS011;38224;50.950;4.100;2023-02-15T07:32:45;94.80;;;45.50;;
52268;SDS011;38224;50.950;4.100;2023-02-15T07:35:29;89.78;;;44.05;;
52268;SDS011;38224;50.950;4.100;2023-02-15T07:37:54;79.32;;;42.05;;
52268;SDS011;38224;50.950;4.100;2023-02-15T07:40:19;92.55;;;45.50;;
52268;SDS011;38224;50.950;4.100;2023-02-15T07:42:47;85.63;;;43.83;;
52268;SDS011;38224;50.950;4.100;2023-02-15T07:45:12;86.25;;;41.42;;
52268;SDS011;38224;50.950;4.100;2023-02-15T07:47:37;99.05;;;45.35;;
52268;SDS011;38224;50.950;4.100;2023-02-15T07:50:03;83.53;;;42.10;;
52268;SDS011;38224;50.950;4.100;2023-02-15T07:52:28;82.25;;;43.65;;
52268;SDS011;38224;50.950;4.100;2023-02-15T07:54:53;92.13;;;42.87;;
52268;SDS011;38224;50.950;4.100;2023-02-15T07:57:19;83.28;;;42.40;;
52268;SDS011;38224;50.950;4.100;2023-02-15T07:59:44;92.70;;;43.78;;
52268;SDS011;38224;50.950;4.100;2023-02-15T08:02:10;81.93;;;41.53;;
52268;SDS011;38224;50.950;4.100;2023-02-15T08:04:35;85.30;;;43.10;;
52268;SDS011;38224;50.950;4.100;2023-02-15T08:07:01;88.80;;;43.88;;
52268;SDS011;38224;50.950;4.100;2023-02-15T08:09:26;80.03;;;41.27;;
52268;SDS011;38224;50.950;4.100;2023-02-15T08:11:51;88.47;;;42.57;;
52268;SDS011;38224;50.950;4.100;2023-02-15T08:14:17;84.00;;;41.70;;
52268;SDS011;38224;50.950;4.100;2023-02-15T08:16:47;87.25;;;43.95;;
52268;SDS011;38224;50.950;4.100;2023-02-15T08:19:20;88.47;;;42.30;;
52268;SDS011;38224;50.950;4.100;2023-02-15T08:21:47;89.80;;;43.78;;
52268;SDS011;38224;50.950;4.100;2023-02-15T08:24:13;84.53;;;41.95;;
52268;SDS011;38224;50.950;4.100;2023-02-15T08:26:39;72.75;;;38.97;;
52268;SDS011;38224;50.950;4.100;2023-02-15T08:29:05;83.88;;;41.35;;
52268;SDS011;38224;50.950;4.100;2023-02-15T08:31:32;77.38;;;37.35;;
52268;SDS011;38224;50.950;4.100;2023-02-15T08:33:58;65.50;;;36.15;;
52268;SDS011;38224;50.950;4.100;2023-02-15T08:36:24;69.70;;;37.17;;
52268;SDS011;38224;50.950;4.100;2023-02-15T08:38:49;63.33;;;34.38;;
52268;SDS011;38224;50.950;4.100;2023-02-15T08:43:40;65.60;;;33.10;;
52268;SDS011;38224;50.950;4.100;2023-02-15T08:46:06;62.15;;;33.08;;
52268;SDS011;38224;50.950;4.100;2023-02-15T08:48:33;66.93;;;34.65;;
52268;SDS011;38224;50.950;4.100;2023-02-15T08:50:58;68.32;;;34.75;;
52268;SDS011;38224;50.950;4.100;2023-02-15T08:53:23;65.07;;;35.40;;
52268;SDS011;38224;50.950;4.100;2023-02-15T08:55:55;66.22;;;35.72;;
52268;SDS011;38224;50.950;4.100;2023-02-15T08:58:21;67.90;;;34.75;;
52268;SDS011;38224;50.950;4.100;2023-02-15T09:00:46;71.10;;;35.63;;
52268;SDS011;38224;50.950;4.100;2023-02-15T09:03:12;62.95;;;35.33;;
52268;SDS011;38224;50.950;4.100;2023-02-15T09:05:37;71.13;;;36.05;;
52268;SDS011;38224;50.950;4.100;2023-02-15T09:08:02;67.57;;;33.13;;
52268;SDS011;38224;50.950;4.100;2023-02-15T09:10:27;60.00;;;31.77;;
52268;SDS011;38224;50.950;4.100;2023-02-15T09:12:53;56.37;;;31.20;;
52268;SDS011;38224;50.950;4.100;2023-02-15T09:15:18;70.25;;;32.90;;
52268;SDS011;38224;50.950;4.100;2023-02-15T09:17:43;67.50;;;33.23;;
52268;SDS011;38224;50.950;4.100;2023-02-15T09:20:08;59.40;;;32.23;;
52268;SDS011;38224;50.950;4.100;2023-02-15T09:22:34;62.83;;;31.20;;
52268;SDS011;38224;50.950;4.100;2023-02-15T09:24:59;60.97;;;33.33;;
52268;SDS011;38224;50.950;4.100;2023-02-15T09:27:24;58.40;;;31.53;;
52268;SDS011;38224;50.950;4.100;2023-02-15T09:29:50;55.83;;;32.20;;
52268;SDS011;38224;50.950;4.100;2023-02-15T09:32:15;58.58;;;31.67;;
52268;SDS011;38224;50.950;4.100;2023-02-15T09:34:42;62.80;;;33.22;;
52268;SDS011;38224;50.950;4.100;2023-02-15T09:37:07;59.90;;;31.98;;
52268;SDS011;38224;50.950;4.100;2023-02-15T09:39:40;61.27;;;31.83;;
52268;SDS011;38224;50.950;4.100;2023-02-15T09:42:11;55.85;;;31.15;;
52268;SDS011;38224;50.950;4.100;2023-02-15T09:44:57;58.35;;;32.38;;
52268;SDS011;38224;50.950;4.100;2023-02-15T09:53:01;60.38;;;31.83;;
52268;SDS011;38224;50.950;4.100;2023-02-15T10:06:04;55.43;;;29.67;;
52268;SDS011;38224;50.950;4.100;2023-02-15T10:08:48;53.50;;;30.17;;
52268;SDS011;38224;50.950;4.100;2023-02-15T10:11:24;57.05;;;31.35;;
52268;SDS011;38224;50.950;4.100;2023-02-15T10:16:42;52.88;;;29.88;;
52268;SDS011;38224;50.950;4.100;2023-02-15T10:31:45;58.22;;;33.47;;
52268;SDS011;38224;50.950;4.100;2023-02-15T10:34:14;61.08;;;33.80;;
52268;SDS011;38224;50.950;4.100;2023-02-15T10:36:45;60.35;;;33.10;;
52268;SDS011;38224;50.950;4.100;2023-02-15T10:39:18;62.75;;;33.65;;
52268;SDS011;38224;50.950;4.100;2023-02-15T10:44:25;59.70;;;32.70;;
52268;SDS011;38224;50.950;4.100;2023-02-15T10:49:51;63.30;;;33.13;;
52268;SDS011;38224;50.950;4.100;2023-02-15T10:52:25;63.78;;;31.60;;
52268;SDS011;38224;50.950;4.100;2023-02-15T11:00:07;54.38;;;30.60;;
52268;SDS011;38224;50.950;4.100;2023-02-15T11:02:45;57.25;;;31.88;;
52268;SDS011;38224;50.950;4.100;2023-02-15T11:07:44;62.50;;;33.33;;
52268;SDS011;38224;50.950;4.100;2023-02-15T11:10:28;75.63;;;33.80;;
52268;SDS011;38224;50.950;4.100;2023-02-15T11:12:55;68.18;;;32.63;;
52268;SDS011;38224;50.950;4.100;2023-02-15T11:17:58;56.80;;;31.55;;
52268;SDS011;38224;50.950;4.100;2023-02-15T11:20:28;62.60;;;29.92;;
52268;SDS011;38224;50.950;4.100;2023-02-15T11:22:54;61.42;;;32.58;;
52268;SDS011;38224;50.950;4.100;2023-02-15T11:25:24;64.63;;;33.65;;
52268;SDS011;38224;50.950;4.100;2023-02-15T11:27:50;64.43;;;33.38;;
52268;SDS011;38224;50.950;4.100;2023-02-15T11:30:21;63.22;;;33.58;;
52268;SDS011;38224;50.950;4.100;2023-02-15T11:32:47;63.05;;;32.70;;
52268;SDS011;38224;50.950;4.100;2023-02-15T11:37:46;58.10;;;31.43;;
52268;SDS011;38224;50.950;4.100;2023-02-15T11:40:35;59.83;;;33.47;;
52268;SDS011;38224;50.950;4.100;2023-02-15T11:43:00;59.80;;;32.78;;
52268;SDS011;38224;50.950;4.100;2023-02-15T11:45:28;55.80;;;32.63;;
52268;SDS011;38224;50.950;4.100;2023-02-15T11:47:54;65.90;;;33.65;;
52268;SDS011;38224;50.950;4.100;2023-02-15T11:50:21;58.72;;;32.20;;
52268;SDS011;38224;50.950;4.100;2023-02-15T11:52:47;62.88;;;32.75;;
52268;SDS011;38224;50.950;4.100;2023-02-15T11:55:14;61.67;;;31.42;;
52268;SDS011;38224;50.950;4.100;2023-02-15T11:57:42;72.88;;;33.60;;
52268;SDS011;38224;50.950;4.100;2023-02-15T12:02:37;60.55;;;33.58;;
52268;SDS011;38224;50.950;4.100;2023-02-15T12:05:05;59.05;;;32.85;;
52268;SDS011;38224;50.950;4.100;2023-02-15T12:07:34;56.10;;;32.60;;
52268;SDS011;38224;50.950;4.100;2023-02-15T12:10:05;63.33;;;34.75;;
52268;SDS011;38224;50.950;4.100;2023-02-15T12:12:39;71.70;;;35.17;;
52268;SDS011;38224;50.950;4.100;2023-02-15T12:15:08;62.47;;;33.13;;
52268;SDS011;38224;50.950;4.100;2023-02-15T12:17:34;57.50;;;31.42;;
52268;SDS011;38224;50.950;4.100;2023-02-15T12:20:01;58.10;;;33.03;;
52268;SDS011;38224;50.950;4.100;2023-02-15T12:22:28;63.80;;;34.38;;
52268;SDS011;38224;50.950;4.100;2023-02-15T12:24:55;59.58;;;35.58;;
52268;SDS011;38224;50.950;4.100;2023-02-15T12:27:25;59.10;;;32.85;;
52268;SDS011;38224;50.950;4.100;2023-02-15T12:29:52;59.72;;;32.30;;
52268;SDS011;38224;50.950;4.100;2023-02-15T12:33:05;65.07;;;34.13;;
52268;SDS011;38224;50.950;4.100;2023-02-15T12:35:08;62.58;;;35.28;;
52268;SDS011;38224;50.950;4.100;2023-02-15T12:37:34;59.45;;;33.03;;
52268;SDS011;38224;50.950;4.100;2023-02-15T12:40:02;60.47;;;33.10;;
52268;SDS011;38224;50.950;4.100;2023-02-15T12:42:43;57.78;;;32.20;;
52268;SDS011;38224;50.950;4.100;2023-02-15T12:47:46;56.00;;;32.60;;
52268;SDS011;38224;50.950;4.100;2023-02-15T12:50:13;57.90;;;33.70;;
52268;SDS011;38224;50.950;4.100;2023-02-15T12:55:30;68.65;;;34.33;;
52268;SDS011;38224;50.950;4.100;2023-02-15T12:58:05;57.95;;;33.38;;
52268;SDS011;38224;50.950;4.100;2023-02-15T13:00:30;59.60;;;32.25;;
52268;SDS011;38224;50.950;4.100;2023-02-15T13:02:57;61.50;;;33.45;;
52268;SDS011;38224;50.950;4.100;2023-02-15T13:05:29;63.33;;;33.40;;
52268;SDS011;38224;50.950;4.100;2023-02-15T13:10:40;55.63;;;32.17;;
52268;SDS011;38224;50.950;4.100;2023-02-15T13:13:16;73.97;;;33.97;;
52268;SDS011;38224;50.950;4.100;2023-02-15T13:15:44;54.08;;;32.42;;
52268;SDS011;38224;50.950;4.100;2023-02-15T13:18:23;60.70;;;33.63;;
52268;SDS011;38224;50.950;4.100;2023-02-15T13:20:52;62.15;;;33.97;;
52268;SDS011;38224;50.950;4.100;2023-02-15T13:23:25;61.23;;;34.30;;
52268;SDS011;38224;50.950;4.100;2023-02-15T13:25:52;54.95;;;31.48;;
52268;SDS011;38224;50.950;4.100;2023-02-15T13:28:18;57.58;;;32.40;;
52268;SDS011;38224;50.950;4.100;2023-02-15T13:30:47;57.63;;;33.55;;
52268;SDS011;38224;50.950;4.100;2023-02-15T13:33:26;61.97;;;32.00;;
52268;SDS011;38224;50.950;4.100;2023-02-15T13:41:01;70.05;;;33.72;;
52268;SDS011;38224;50.950;4.100;2023-02-15T13:43:40;55.00;;;32.38;;
52268;SDS011;38224;50.950;4.100;2023-02-15T13:46:23;61.90;;;31.00;;
52268;SDS011;38224;50.950;4.100;2023-02-15T13:49:12;66.82;;;33.88;;
52268;SDS011;38224;50.950;4.100;2023-02-15T14:04:52;58.60;;;33.55;;
52268;SDS011;38224;50.950;4.100;2023-02-15T14:07:24;64.45;;;33.90;;
52268;SDS011;38224;50.950;4.100;2023-02-15T14:22:50;59.83;;;33.75;;
52268;SDS011;38224;50.950;4.100;2023-02-15T14:27:45;60.47;;;34.42;;
52268;SDS011;38224;50.950;4.100;2023-02-15T14:30:20;54.90;;;31.88;;
52268;SDS011;38224;50.950;4.100;2023-02-15T14:35:15;63.47;;;32.83;;
52268;SDS011;38224;50.950;4.100;2023-02-15T14:40:08;60.00;;;33.47;;
52268;SDS011;38224;50.950;4.100;2023-02-15T14:43:02;67.20;;;34.58;;
52268;SDS011;38224;50.950;4.100;2023-02-15T14:45:49;58.95;;;32.90;;
52268;SDS011;38224;50.950;4.100;2023-02-15T14:48:16;59.17;;;34.70;;
52268;SDS011;38224;50.950;4.100;2023-02-15T14:50:45;65.78;;;34.03;;
52268;SDS011;38224;50.950;4.100;2023-02-15T14:53:20;55.80;;;33.45;;
52268;SDS011;38224;50.950;4.100;2023-02-15T14:55:47;61.58;;;34.42;;
52268;SDS011;38224;50.950;4.100;2023-02-15T14:58:12;67.05;;;34.08;;
52268;SDS011;38224;50.950;4.100;2023-02-15T15:00:39;64.43;;;33.58;;
52268;SDS011;38224;50.950;4.100;2023-02-15T15:03:10;52.67;;;32.60;;
52268;SDS011;38224;50.950;4.100;2023-02-15T15:05:35;60.20;;;33.70;;
52268;SDS011;38224;50.950;4.100;2023-02-15T15:08:19;60.25;;;33.78;;
52268;SDS011;38224;50.950;4.100;2023-02-15T15:10:46;62.38;;;32.63;;
52268;SDS011;38224;50.950;4.100;2023-02-15T15:16:27;53.70;;;31.95;;
52268;SDS011;38224;50.950;4.100;2023-02-15T15:24:02;60.08;;;32.65;;
52268;SDS011;38224;50.950;4.100;2023-02-15T15:26:30;70.03;;;34.53;;
52268;SDS011;38224;50.950;4.100;2023-02-15T15:28:58;61.03;;;33.72;;
52268;SDS011;38224;50.950;4.100;2023-02-15T15:49:31;66.50;;;36.03;;
52268;SDS011;38224;50.950;4.100;2023-02-15T15:51:59;62.33;;;32.22;;
52268;SDS011;38224;50.950;4.100;2023-02-15T15:54:25;61.35;;;36.20;;
52268;SDS011;38224;50.950;4.100;2023-02-15T15:56:52;66.28;;;35.42;;
52268;SDS011;38224;50.950;4.100;2023-02-15T15:59:24;62.00;;;33.95;;
52268;SDS011;38224;50.950;4.100;2023-02-15T16:01:50;59.85;;;34.90;;
52268;SDS011;38224;50.950;4.100;2023-02-15T16:04:24;63.45;;;35.78;;
52268;SDS011;38224;50.950;4.100;2023-02-15T16:06:50;62.13;;;34.30;;
52268;SDS011;38224;50.950;4.100;2023-02-15T16:09:17;63.10;;;34.90;;
52268;SDS011;38224;50.950;4.100;2023-02-15T16:11:45;64.50;;;33.38;;
52268;SDS011;38224;50.950;4.100;2023-02-15T16:14:24;67.72;;;36.53;;
52268;SDS011;38224;50.950;4.100;2023-02-15T16:16:51;63.90;;;35.60;;
52268;SDS011;38224;50.950;4.100;2023-02-15T16:19:21;60.40;;;34.78;;
52268;SDS011;38224;50.950;4.100;2023-02-15T16:21:47;69.95;;;36.35;;
52268;SDS011;38224;50.950;4.100;2023-02-15T16:29:13;64.03;;;36.28;;
52268;SDS011;38224;50.950;4.100;2023-02-15T16:31:39;74.37;;;36.30;;
52268;SDS011;38224;50.950;4.100;2023-02-15T16:34:07;68.30;;;37.40;;
52268;SDS011;38224;50.950;4.100;2023-02-15T16:36:34;84.45;;;38.80;;
52268;SDS011;38224;50.950;4.100;2023-02-15T16:39:06;67.23;;;39.67;;
52268;SDS011;38224;50.950;4.100;2023-02-15T16:41:31;67.53;;;37.58;;
52268;SDS011;38224;50.950;4.100;2023-02-15T16:43:58;70.07;;;38.28;;
52268;SDS011;38224;50.950;4.100;2023-02-15T16:46:28;77.07;;;39.38;;
52268;SDS011;38224;50.950;4.100;2023-02-15T16:48:56;68.78;;;38.30;;
52268;SDS011;38224;50.950;4.100;2023-02-15T16:51:26;74.57;;;39.45;;
52268;SDS011;38224;50.950;4.100;2023-02-15T16:53:55;63.72;;;36.05;;
52268;SDS011;38224;50.950;4.100;2023-02-15T16:56:28;73.22;;;40.95;;
52268;SDS011;38224;50.950;4.100;2023-02-15T16:58:55;72.85;;;41.20;;
52268;SDS011;38224;50.950;4.100;2023-02-15T17:01:23;73.55;;;40.97;;